Strona główna
METAR-TAF:

METAR-TAF

Lotnisko :

Port lotniczy Dżudda

Dżudda, Arabia Saudyjska

Szerokość geograficzna: 21-42N, Długość geograficzna: 039-11E, wysokość: 15 m

Aktualna obserwacja pogody

Raport powstał 7 minut temu, godzina 07:00 UTC
Wiatr 8 kt od północno-północny zachód
Temperatura 34°C
Wilgotność 60%
Ciśnienie 1005 hPa
Widzialność 10 km lub więcej
Brak chmur poniżej 1500 m i brak chmur cumulonimbus

METAR: OEJN 200700Z 33008KT CAVOK 34/25 Q1005 NOSIG

czas: 10:07 (07:07 UTC)

Prognoza

Raport powstał 2 godziny i 7 minut temu, godzina 05:00 UTC
Prognoza ważna od 20 godzina 06 UTC do 21 godzina 12 UTC
Wiatr 8 kt od północny zachód w porywach dochodzący do 18 kt
Widzialność: 7000 m
Mało chmury na wysokości 4000 ft
Stopniowe zmiany
od 20 godzina 21 UTC do 20 godzina 23 UTC
Wiatr 3 kt z kierunków zmiennych

TAF: OEJN 200500Z 2006/2112 32008G18KT 7000 FEW040 BECMG 2021/2023 VRB03KT

Obserwacja i prognoza pogody dla ponad 4000 lotnisk (raport METAR i TAF).

Dostępne stacje oznaczono żółtymi i czerwonymi punktami na mapie.

Najedź kursorem aby zobaczyć nazwę stacji.

Kliknij aby zobaczyć obserwacje i prognozy pogody.

Aby zmienić mapę: kliknij na zielony przycisk z czarnym krzyżykiem, aby powiększyć; na zielony przycisk z myślnikiem, aby pomniejszyć; na zielone strzałki, aby przejść do map sąsiednich.


METAR-TAF: